sensor_id;sensor_type;location;lat;lon;timestamp;P1;durP1;ratioP1;P2;durP2;ratioP2
12122;SDS011;6125;59.628;17.852;2023-06-26T00:00:56;5.83;;;3.17;;
12122;SDS011;6125;59.628;17.852;2023-06-26T00:03:23;3.03;;;2.60;;
12122;SDS011;6125;59.628;17.852;2023-06-26T00:05:51;6.80;;;2.90;;
12122;SDS011;6125;59.628;17.852;2023-06-26T00:08:18;7.70;;;3.47;;
12122;SDS011;6125;59.628;17.852;2023-06-26T00:10:45;5.63;;;3.17;;
12122;SDS011;6125;59.628;17.852;2023-06-26T00:13:13;3.20;;;2.90;;
12122;SDS011;6125;59.628;17.852;2023-06-26T00:15:40;6.93;;;3.07;;
12122;SDS011;6125;59.628;17.852;2023-06-26T00:18:08;5.63;;;2.90;;
12122;SDS011;6125;59.628;17.852;2023-06-26T00:20:35;5.20;;;2.87;;
12122;SDS011;6125;59.628;17.852;2023-06-26T00:23:02;4.20;;;3.07;;
12122;SDS011;6125;59.628;17.852;2023-06-26T00:25:32;4.07;;;2.87;;
12122;SDS011;6125;59.628;17.852;2023-06-26T00:27:59;3.70;;;2.87;;
12122;SDS011;6125;59.628;17.852;2023-06-26T00:30:28;5.23;;;3.10;;
12122;SDS011;6125;59.628;17.852;2023-06-26T00:32:55;3.63;;;3.20;;
12122;SDS011;6125;59.628;17.852;2023-06-26T00:35:22;6.43;;;3.13;;
12122;SDS011;6125;59.628;17.852;2023-06-26T00:37:50;3.67;;;2.70;;
12122;SDS011;6125;59.628;17.852;2023-06-26T00:40:17;13.77;;;3.90;;
12122;SDS011;6125;59.628;17.852;2023-06-26T00:42:44;4.97;;;3.13;;
12122;SDS011;6125;59.628;17.852;2023-06-26T00:45:11;3.50;;;2.90;;
12122;SDS011;6125;59.628;17.852;2023-06-26T00:47:39;4.10;;;3.00;;
12122;SDS011;6125;59.628;17.852;2023-06-26T00:50:07;3.73;;;3.20;;
12122;SDS011;6125;59.628;17.852;2023-06-26T00:52:35;3.90;;;3.10;;
12122;SDS011;6125;59.628;17.852;2023-06-26T00:55:03;3.77;;;3.00;;
12122;SDS011;6125;59.628;17.852;2023-06-26T00:57:30;5.17;;;2.90;;
12122;SDS011;6125;59.628;17.852;2023-06-26T00:59:58;4.77;;;3.10;;
12122;SDS011;6125;59.628;17.852;2023-06-26T01:02:27;8.23;;;3.10;;
12122;SDS011;6125;59.628;17.852;2023-06-26T01:05:00;4.33;;;3.03;;
12122;SDS011;6125;59.628;17.852;2023-06-26T01:07:31;4.50;;;3.07;;
12122;SDS011;6125;59.628;17.852;2023-06-26T01:10:01;5.60;;;2.90;;
12122;SDS011;6125;59.628;17.852;2023-06-26T01:12:29;3.97;;;2.80;;
12122;SDS011;6125;59.628;17.852;2023-06-26T01:14:57;3.90;;;2.70;;
12122;SDS011;6125;59.628;17.852;2023-06-26T01:17:25;3.57;;;2.77;;
12122;SDS011;6125;59.628;17.852;2023-06-26T01:19:56;4.00;;;2.90;;
12122;SDS011;6125;59.628;17.852;2023-06-26T01:22:27;3.53;;;2.67;;
12122;SDS011;6125;59.628;17.852;2023-06-26T01:25:02;4.53;;;2.80;;
12122;SDS011;6125;59.628;17.852;2023-06-26T01:27:38;3.40;;;2.60;;
12122;SDS011;6125;59.628;17.852;2023-06-26T01:30:07;3.63;;;2.80;;
12122;SDS011;6125;59.628;17.852;2023-06-26T01:32:36;4.00;;;3.00;;
12122;SDS011;6125;59.628;17.852;2023-06-26T01:35:05;5.03;;;2.80;;
12122;SDS011;6125;59.628;17.852;2023-06-26T01:37:33;5.37;;;2.90;;
12122;SDS011;6125;59.628;17.852;2023-06-26T01:40:00;3.73;;;2.80;;
12122;SDS011;6125;59.628;17.852;2023-06-26T01:42:30;4.10;;;2.93;;
12122;SDS011;6125;59.628;17.852;2023-06-26T01:44:59;5.57;;;3.37;;
12122;SDS011;6125;59.628;17.852;2023-06-26T01:47:30;5.63;;;3.30;;
12122;SDS011;6125;59.628;17.852;2023-06-26T01:50:02;3.03;;;2.50;;
12122;SDS011;6125;59.628;17.852;2023-06-26T01:52:35;4.47;;;3.27;;
12122;SDS011;6125;59.628;17.852;2023-06-26T01:55:11;7.13;;;3.03;;
12122;SDS011;6125;59.628;17.852;2023-06-26T01:57:42;3.93;;;2.50;;
12122;SDS011;6125;59.628;17.852;2023-06-26T02:00:14;5.67;;;2.77;;
12122;SDS011;6125;59.628;17.852;2023-06-26T02:02:43;3.23;;;2.70;;
12122;SDS011;6125;59.628;17.852;2023-06-26T02:05:11;3.97;;;2.70;;
12122;SDS011;6125;59.628;17.852;2023-06-26T02:07:38;4.87;;;2.33;;
12122;SDS011;6125;59.628;17.852;2023-06-26T02:10:06;3.57;;;2.53;;
12122;SDS011;6125;59.628;17.852;2023-06-26T02:12:34;6.33;;;2.70;;
12122;SDS011;6125;59.628;17.852;2023-06-26T02:15:02;4.03;;;2.47;;
12122;SDS011;6125;59.628;17.852;2023-06-26T02:17:31;3.50;;;2.60;;
12122;SDS011;6125;59.628;17.852;2023-06-26T02:19:59;3.70;;;2.73;;
12122;SDS011;6125;59.628;17.852;2023-06-26T02:22:26;5.10;;;2.57;;
12122;SDS011;6125;59.628;17.852;2023-06-26T02:24:53;3.93;;;2.57;;
12122;SDS011;6125;59.628;17.852;2023-06-26T02:27:21;5.30;;;2.80;;
12122;SDS011;6125;59.628;17.852;2023-06-26T02:29:48;3.67;;;2.70;;
12122;SDS011;6125;59.628;17.852;2023-06-26T02:32:15;4.00;;;2.37;;
12122;SDS011;6125;59.628;17.852;2023-06-26T02:34:44;4.10;;;2.77;;
12122;SDS011;6125;59.628;17.852;2023-06-26T02:37:11;5.83;;;2.90;;
12122;SDS011;6125;59.628;17.852;2023-06-26T02:39:38;4.67;;;2.43;;
12122;SDS011;6125;59.628;17.852;2023-06-26T02:42:05;3.23;;;2.57;;
12122;SDS011;6125;59.628;17.852;2023-06-26T02:44:32;6.57;;;2.53;;
12122;SDS011;6125;59.628;17.852;2023-06-26T02:46:59;3.97;;;2.50;;
12122;SDS011;6125;59.628;17.852;2023-06-26T02:49:26;4.20;;;2.67;;
12122;SDS011;6125;59.628;17.852;2023-06-26T02:51:55;2.47;;;2.20;;
12122;SDS011;6125;59.628;17.852;2023-06-26T02:54:22;3.80;;;2.60;;
12122;SDS011;6125;59.628;17.852;2023-06-26T02:56:49;4.27;;;2.77;;
12122;SDS011;6125;59.628;17.852;2023-06-26T02:59:17;4.97;;;2.50;;
12122;SDS011;6125;59.628;17.852;2023-06-26T03:01:44;4.13;;;2.27;;
12122;SDS011;6125;59.628;17.852;2023-06-26T03:04:11;7.77;;;2.80;;
12122;SDS011;6125;59.628;17.852;2023-06-26T03:06:40;3.73;;;2.30;;
12122;SDS011;6125;59.628;17.852;2023-06-26T03:09:08;8.97;;;2.60;;
12122;SDS011;6125;59.628;17.852;2023-06-26T03:11:36;15.87;;;3.10;;
12122;SDS011;6125;59.628;17.852;2023-06-26T03:14:03;4.70;;;2.20;;
12122;SDS011;6125;59.628;17.852;2023-06-26T03:16:30;7.00;;;2.40;;
12122;SDS011;6125;59.628;17.852;2023-06-26T03:18:58;3.83;;;2.67;;
12122;SDS011;6125;59.628;17.852;2023-06-26T03:21:25;3.73;;;2.13;;
12122;SDS011;6125;59.628;17.852;2023-06-26T03:23:52;10.57;;;3.60;;
12122;SDS011;6125;59.628;17.852;2023-06-26T03:26:21;3.63;;;2.33;;
12122;SDS011;6125;59.628;17.852;2023-06-26T03:28:52;5.07;;;2.40;;
12122;SDS011;6125;59.628;17.852;2023-06-26T03:31:19;3.60;;;3.03;;
12122;SDS011;6125;59.628;17.852;2023-06-26T03:33:46;3.90;;;2.67;;
12122;SDS011;6125;59.628;17.852;2023-06-26T03:36:14;3.53;;;2.37;;
12122;SDS011;6125;59.628;17.852;2023-06-26T03:38:41;5.17;;;2.50;;
12122;SDS011;6125;59.628;17.852;2023-06-26T03:41:08;5.60;;;2.60;;
12122;SDS011;6125;59.628;17.852;2023-06-26T03:43:37;2.57;;;2.37;;
12122;SDS011;6125;59.628;17.852;2023-06-26T03:46:04;4.87;;;2.43;;
12122;SDS011;6125;59.628;17.852;2023-06-26T03:48:31;5.50;;;2.70;;
12122;SDS011;6125;59.628;17.852;2023-06-26T03:50:58;4.20;;;2.90;;
12122;SDS011;6125;59.628;17.852;2023-06-26T03:53:27;3.23;;;2.50;;
12122;SDS011;6125;59.628;17.852;2023-06-26T03:55:54;3.37;;;2.73;;
12122;SDS011;6125;59.628;17.852;2023-06-26T03:58:21;5.80;;;2.70;;
12122;SDS011;6125;59.628;17.852;2023-06-26T04:00:51;3.47;;;2.37;;
12122;SDS011;6125;59.628;17.852;2023-06-26T04:03:18;3.13;;;2.43;;
12122;SDS011;6125;59.628;17.852;2023-06-26T04:05:45;4.00;;;2.57;;
12122;SDS011;6125;59.628;17.852;2023-06-26T04:08:12;7.27;;;2.40;;
12122;SDS011;6125;59.628;17.852;2023-06-26T04:10:40;3.20;;;2.67;;
12122;SDS011;6125;59.628;17.852;2023-06-26T04:13:14;5.00;;;2.80;;
12122;SDS011;6125;59.628;17.852;2023-06-26T04:15:41;2.80;;;2.60;;
12122;SDS011;6125;59.628;17.852;2023-06-26T04:18:10;4.87;;;2.70;;
12122;SDS011;6125;59.628;17.852;2023-06-26T04:20:39;4.17;;;2.83;;
12122;SDS011;6125;59.628;17.852;2023-06-26T04:23:10;2.87;;;2.30;;
12122;SDS011;6125;59.628;17.852;2023-06-26T04:25:37;4.80;;;2.57;;
12122;SDS011;6125;59.628;17.852;2023-06-26T04:28:04;3.80;;;2.00;;
12122;SDS011;6125;59.628;17.852;2023-06-26T04:30:31;3.97;;;2.70;;
12122;SDS011;6125;59.628;17.852;2023-06-26T04:32:59;4.03;;;2.40;;
12122;SDS011;6125;59.628;17.852;2023-06-26T04:35:28;3.13;;;2.27;;
12122;SDS011;6125;59.628;17.852;2023-06-26T04:37:55;4.40;;;2.40;;
12122;SDS011;6125;59.628;17.852;2023-06-26T04:40:22;4.77;;;2.80;;
12122;SDS011;6125;59.628;17.852;2023-06-26T04:42:49;4.30;;;2.73;;
12122;SDS011;6125;59.628;17.852;2023-06-26T04:45:16;3.37;;;2.47;;
12122;SDS011;6125;59.628;17.852;2023-06-26T04:47:44;6.97;;;2.40;;
12122;SDS011;6125;59.628;17.852;2023-06-26T04:50:11;3.27;;;2.70;;
12122;SDS011;6125;59.628;17.852;2023-06-26T04:52:40;6.03;;;3.43;;
12122;SDS011;6125;59.628;17.852;2023-06-26T04:55:07;3.13;;;2.70;;
12122;SDS011;6125;59.628;17.852;2023-06-26T04:57:34;4.53;;;2.67;;
12122;SDS011;6125;59.628;17.852;2023-06-26T05:00:01;7.67;;;2.53;;
12122;SDS011;6125;59.628;17.852;2023-06-26T05:02:32;5.80;;;2.77;;
12122;SDS011;6125;59.628;17.852;2023-06-26T05:05:00;4.47;;;2.60;;
12122;SDS011;6125;59.628;17.852;2023-06-26T05:07:27;5.53;;;2.83;;
12122;SDS011;6125;59.628;17.852;2023-06-26T05:09:55;5.57;;;2.70;;
12122;SDS011;6125;59.628;17.852;2023-06-26T05:12:22;9.07;;;3.00;;
12122;SDS011;6125;59.628;17.852;2023-06-26T05:14:50;3.10;;;2.70;;
12122;SDS011;6125;59.628;17.852;2023-06-26T05:17:17;8.17;;;3.23;;
12122;SDS011;6125;59.628;17.852;2023-06-26T05:19:44;6.63;;;3.00;;
12122;SDS011;6125;59.628;17.852;2023-06-26T05:22:11;4.33;;;2.63;;
12122;SDS011;6125;59.628;17.852;2023-06-26T05:24:39;5.10;;;2.60;;
12122;SDS011;6125;59.628;17.852;2023-06-26T05:27:09;3.63;;;2.60;;
12122;SDS011;6125;59.628;17.852;2023-06-26T05:29:44;8.60;;;2.50;;
12122;SDS011;6125;59.628;17.852;2023-06-26T05:32:12;4.37;;;2.77;;
12122;SDS011;6125;59.628;17.852;2023-06-26T05:34:44;4.30;;;2.33;;
12122;SDS011;6125;59.628;17.852;2023-06-26T05:37:14;6.53;;;2.70;;
12122;SDS011;6125;59.628;17.852;2023-06-26T05:39:45;3.83;;;2.67;;
12122;SDS011;6125;59.628;17.852;2023-06-26T05:42:15;4.47;;;2.40;;
12122;SDS011;6125;59.628;17.852;2023-06-26T05:44:42;2.63;;;2.30;;
12122;SDS011;6125;59.628;17.852;2023-06-26T05:47:09;3.33;;;2.63;;
12122;SDS011;6125;59.628;17.852;2023-06-26T05:49:37;3.87;;;2.50;;
12122;SDS011;6125;59.628;17.852;2023-06-26T05:52:04;3.63;;;2.80;;
12122;SDS011;6125;59.628;17.852;2023-06-26T05:54:32;2.70;;;2.50;;
12122;SDS011;6125;59.628;17.852;2023-06-26T05:57:00;2.77;;;2.40;;
12122;SDS011;6125;59.628;17.852;2023-06-26T05:59:29;2.63;;;2.27;;
12122;SDS011;6125;59.628;17.852;2023-06-26T06:01:58;2.80;;;2.40;;
12122;SDS011;6125;59.628;17.852;2023-06-26T06:04:26;3.50;;;2.30;;
12122;SDS011;6125;59.628;17.852;2023-06-26T06:06:53;3.60;;;2.43;;
12122;SDS011;6125;59.628;17.852;2023-06-26T06:09:20;5.00;;;2.37;;
12122;SDS011;6125;59.628;17.852;2023-06-26T06:11:47;2.70;;;2.50;;
12122;SDS011;6125;59.628;17.852;2023-06-26T06:14:14;3.90;;;2.47;;
12122;SDS011;6125;59.628;17.852;2023-06-26T06:16:43;3.23;;;2.63;;
12122;SDS011;6125;59.628;17.852;2023-06-26T06:19:10;4.63;;;2.70;;
12122;SDS011;6125;59.628;17.852;2023-06-26T06:21:38;5.97;;;2.70;;
12122;SDS011;6125;59.628;17.852;2023-06-26T06:24:06;4.63;;;2.80;;
12122;SDS011;6125;59.628;17.852;2023-06-26T06:26:34;4.47;;;2.57;;
12122;SDS011;6125;59.628;17.852;2023-06-26T06:29:01;6.20;;;2.20;;
12122;SDS011;6125;59.628;17.852;2023-06-26T06:31:28;3.97;;;2.47;;
12122;SDS011;6125;59.628;17.852;2023-06-26T06:33:57;4.37;;;2.37;;
12122;SDS011;6125;59.628;17.852;2023-06-26T06:36:24;5.90;;;2.33;;
12122;SDS011;6125;59.628;17.852;2023-06-26T06:38:51;5.93;;;2.57;;
12122;SDS011;6125;59.628;17.852;2023-06-26T06:41:19;4.63;;;2.40;;
12122;SDS011;6125;59.628;17.852;2023-06-26T06:43:46;5.20;;;2.30;;
12122;SDS011;6125;59.628;17.852;2023-06-26T06:46:13;5.50;;;2.40;;
12122;SDS011;6125;59.628;17.852;2023-06-26T06:48:40;6.27;;;3.23;;
12122;SDS011;6125;59.628;17.852;2023-06-26T06:51:09;2.77;;;2.27;;
12122;SDS011;6125;59.628;17.852;2023-06-26T06:53:36;5.57;;;2.43;;
12122;SDS011;6125;59.628;17.852;2023-06-26T06:56:03;5.70;;;2.70;;
12122;SDS011;6125;59.628;17.852;2023-06-26T06:58:30;4.87;;;2.20;;
12122;SDS011;6125;59.628;17.852;2023-06-26T07:00:58;4.60;;;2.73;;
12122;SDS011;6125;59.628;17.852;2023-06-26T07:03:29;2.90;;;2.57;;
12122;SDS011;6125;59.628;17.852;2023-06-26T07:05:56;3.57;;;2.57;;
12122;SDS011;6125;59.628;17.852;2023-06-26T07:08:25;8.00;;;2.90;;
12122;SDS011;6125;59.628;17.852;2023-06-26T07:10:52;3.40;;;2.63;;
12122;SDS011;6125;59.628;17.852;2023-06-26T07:13:19;5.53;;;2.70;;
12122;SDS011;6125;59.628;17.852;2023-06-26T07:15:46;3.57;;;2.50;;
12122;SDS011;6125;59.628;17.852;2023-06-26T07:18:14;3.17;;;2.23;;
12122;SDS011;6125;59.628;17.852;2023-06-26T07:20:41;2.80;;;2.10;;
12122;SDS011;6125;59.628;17.852;2023-06-26T07:23:08;3.57;;;2.27;;
12122;SDS011;6125;59.628;17.852;2023-06-26T07:25:37;3.30;;;2.10;;
12122;SDS011;6125;59.628;17.852;2023-06-26T07:28:07;2.53;;;2.33;;
12122;SDS011;6125;59.628;17.852;2023-06-26T07:30:36;2.80;;;2.27;;
12122;SDS011;6125;59.628;17.852;2023-06-26T07:33:03;2.60;;;2.13;;
12122;SDS011;6125;59.628;17.852;2023-06-26T07:35:30;2.40;;;2.20;;
12122;SDS011;6125;59.628;17.852;2023-06-26T07:37:57;3.17;;;2.33;;
12122;SDS011;6125;59.628;17.852;2023-06-26T07:40:25;4.40;;;2.30;;
12122;SDS011;6125;59.628;17.852;2023-06-26T07:42:54;3.83;;;2.40;;
12122;SDS011;6125;59.628;17.852;2023-06-26T07:45:23;4.20;;;2.50;;
12122;SDS011;6125;59.628;17.852;2023-06-26T07:47:50;2.83;;;2.33;;
12122;SDS011;6125;59.628;17.852;2023-06-26T07:50:18;6.10;;;2.20;;
12122;SDS011;6125;59.628;17.852;2023-06-26T07:52:48;3.57;;;2.40;;
12122;SDS011;6125;59.628;17.852;2023-06-26T07:55:17;3.20;;;2.37;;
12122;SDS011;6125;59.628;17.852;2023-06-26T07:57:44;3.10;;;1.90;;
12122;SDS011;6125;59.628;17.852;2023-06-26T08:00:13;2.53;;;2.10;;
12122;SDS011;6125;59.628;17.852;2023-06-26T08:02:41;2.67;;;2.17;;
12122;SDS011;6125;59.628;17.852;2023-06-26T08:05:09;2.50;;;2.20;;
12122;SDS011;6125;59.628;17.852;2023-06-26T08:07:36;5.93;;;2.30;;
12122;SDS011;6125;59.628;17.852;2023-06-26T08:10:03;4.63;;;2.50;;
12122;SDS011;6125;59.628;17.852;2023-06-26T08:12:31;5.53;;;1.87;;
12122;SDS011;6125;59.628;17.852;2023-06-26T08:14:58;2.77;;;2.20;;
12122;SDS011;6125;59.628;17.852;2023-06-26T08:17:29;4.03;;;1.90;;
12122;SDS011;6125;59.628;17.852;2023-06-26T08:19:56;3.63;;;1.70;;
12122;SDS011;6125;59.628;17.852;2023-06-26T08:22:23;1.83;;;1.70;;
12122;SDS011;6125;59.628;17.852;2023-06-26T08:24:50;2.03;;;1.63;;
12122;SDS011;6125;59.628;17.852;2023-06-26T08:27:18;1.83;;;1.63;;
12122;SDS011;6125;59.628;17.852;2023-06-26T08:29:45;2.00;;;1.80;;
12122;SDS011;6125;59.628;17.852;2023-06-26T08:32:12;2.60;;;1.63;;
12122;SDS011;6125;59.628;17.852;2023-06-26T08:34:41;1.50;;;1.40;;
12122;SDS011;6125;59.628;17.852;2023-06-26T08:37:08;1.83;;;1.70;;
12122;SDS011;6125;59.628;17.852;2023-06-26T08:39:35;2.10;;;1.70;;
12122;SDS011;6125;59.628;17.852;2023-06-26T08:42:02;1.67;;;1.57;;
12122;SDS011;6125;59.628;17.852;2023-06-26T08:44:30;2.87;;;1.87;;
12122;SDS011;6125;59.628;17.852;2023-06-26T08:46:58;4.93;;;2.10;;
12122;SDS011;6125;59.628;17.852;2023-06-26T08:49:28;5.10;;;2.10;;
12122;SDS011;6125;59.628;17.852;2023-06-26T08:52:09;2.53;;;1.87;;
12122;SDS011;6125;59.628;17.852;2023-06-26T08:54:45;2.17;;;1.80;;
12122;SDS011;6125;59.628;17.852;2023-06-26T08:57:15;2.33;;;1.90;;
12122;SDS011;6125;59.628;17.852;2023-06-26T08:59:45;2.07;;;1.87;;
12122;SDS011;6125;59.628;17.852;2023-06-26T09:02:14;1.70;;;1.50;;
12122;SDS011;6125;59.628;17.852;2023-06-26T09:04:41;1.70;;;1.60;;
12122;SDS011;6125;59.628;17.852;2023-06-26T09:07:10;2.63;;;1.87;;
12122;SDS011;6125;59.628;17.852;2023-06-26T09:09:37;2.47;;;2.00;;
12122;SDS011;6125;59.628;17.852;2023-06-26T09:12:04;2.53;;;2.10;;
12122;SDS011;6125;59.628;17.852;2023-06-26T09:14:32;2.37;;;1.70;;
12122;SDS011;6125;59.628;17.852;2023-06-26T09:16:59;2.20;;;1.83;;
12122;SDS011;6125;59.628;17.852;2023-06-26T09:19:27;2.60;;;1.90;;
12122;SDS011;6125;59.628;17.852;2023-06-26T09:21:54;2.47;;;1.90;;
12122;SDS011;6125;59.628;17.852;2023-06-26T09:24:23;1.90;;;1.80;;
12122;SDS011;6125;59.628;17.852;2023-06-26T09:26:51;7.10;;;1.93;;
12122;SDS011;6125;59.628;17.852;2023-06-26T09:29:24;2.43;;;1.70;;
12122;SDS011;6125;59.628;17.852;2023-06-26T09:31:54;1.77;;;1.67;;
12122;SDS011;6125;59.628;17.852;2023-06-26T09:34:29;2.23;;;1.70;;
12122;SDS011;6125;59.628;17.852;2023-06-26T09:36:57;2.10;;;1.90;;
12122;SDS011;6125;59.628;17.852;2023-06-26T09:39:29;2.10;;;1.90;;
12122;SDS011;6125;59.628;17.852;2023-06-26T09:41:58;1.80;;;1.70;;
12122;SDS011;6125;59.628;17.852;2023-06-26T09:44:27;2.50;;;1.70;;
12122;SDS011;6125;59.628;17.852;2023-06-26T09:46:56;2.10;;;1.80;;
12122;SDS011;6125;59.628;17.852;2023-06-26T09:49:24;2.63;;;1.80;;
12122;SDS011;6125;59.628;17.852;2023-06-26T09:51:52;4.90;;;2.10;;
12122;SDS011;6125;59.628;17.852;2023-06-26T09:54:21;2.43;;;2.20;;
12122;SDS011;6125;59.628;17.852;2023-06-26T09:56:51;2.40;;;1.87;;
12122;SDS011;6125;59.628;17.852;2023-06-26T09:59:21;2.87;;;2.20;;
12122;SDS011;6125;59.628;17.852;2023-06-26T10:01:50;2.40;;;2.20;;
12122;SDS011;6125;59.628;17.852;2023-06-26T10:04:25;6.60;;;2.27;;
12122;SDS011;6125;59.628;17.852;2023-06-26T10:06:54;5.23;;;2.37;;
12122;SDS011;6125;59.628;17.852;2023-06-26T10:09:23;4.83;;;2.57;;
12122;SDS011;6125;59.628;17.852;2023-06-26T10:11:54;3.70;;;2.37;;
12122;SDS011;6125;59.628;17.852;2023-06-26T10:14:23;2.67;;;2.43;;
12122;SDS011;6125;59.628;17.852;2023-06-26T10:16:53;2.33;;;2.13;;
12122;SDS011;6125;59.628;17.852;2023-06-26T10:19:25;2.53;;;2.20;;
12122;SDS011;6125;59.628;17.852;2023-06-26T10:21:54;6.30;;;2.23;;
12122;SDS011;6125;59.628;17.852;2023-06-26T10:24:22;3.30;;;2.17;;
12122;SDS011;6125;59.628;17.852;2023-06-26T10:26:55;5.37;;;2.27;;
12122;SDS011;6125;59.628;17.852;2023-06-26T10:29:26;4.00;;;2.37;;
12122;SDS011;6125;59.628;17.852;2023-06-26T10:31:55;5.07;;;2.07;;
12122;SDS011;6125;59.628;17.852;2023-06-26T10:34:24;2.43;;;2.07;;
12122;SDS011;6125;59.628;17.852;2023-06-26T10:36:58;3.20;;;2.40;;
12122;SDS011;6125;59.628;17.852;2023-06-26T10:39:26;2.83;;;1.90;;
12122;SDS011;6125;59.628;17.852;2023-06-26T10:41:55;2.63;;;1.90;;
12122;SDS011;6125;59.628;17.852;2023-06-26T10:44:42;2.20;;;2.00;;
12122;SDS011;6125;59.628;17.852;2023-06-26T10:47:10;1.90;;;1.80;;
12122;SDS011;6125;59.628;17.852;2023-06-26T10:49:37;4.07;;;2.20;;
12122;SDS011;6125;59.628;17.852;2023-06-26T10:52:05;2.53;;;1.90;;
12122;SDS011;6125;59.628;17.852;2023-06-26T10:54:32;6.53;;;2.40;;
12122;SDS011;6125;59.628;17.852;2023-06-26T10:57:01;3.33;;;1.83;;
12122;SDS011;6125;59.628;17.852;2023-06-26T10:59:31;2.37;;;1.40;;
12122;SDS011;6125;59.628;17.852;2023-06-26T11:01:59;1.70;;;1.47;;
12122;SDS011;6125;59.628;17.852;2023-06-26T11:04:36;2.00;;;1.67;;
12122;SDS011;6125;59.628;17.852;2023-06-26T11:07:14;11.40;;;3.20;;
12122;SDS011;6125;59.628;17.852;2023-06-26T11:09:53;3.77;;;1.70;;
12122;SDS011;6125;59.628;17.852;2023-06-26T11:12:35;1.97;;;1.60;;
12122;SDS011;6125;59.628;17.852;2023-06-26T11:15:07;2.43;;;1.53;;
12122;SDS011;6125;59.628;17.852;2023-06-26T11:17:35;3.93;;;1.70;;
12122;SDS011;6125;59.628;17.852;2023-06-26T11:20:03;2.90;;;1.67;;
12122;SDS011;6125;59.628;17.852;2023-06-26T11:22:33;2.27;;;1.80;;
12122;SDS011;6125;59.628;17.852;2023-06-26T11:25:01;4.33;;;1.70;;
12122;SDS011;6125;59.628;17.852;2023-06-26T11:27:32;2.80;;;2.40;;
12122;SDS011;6125;59.628;17.852;2023-06-26T11:30:05;6.33;;;1.80;;
12122;SDS011;6125;59.628;17.852;2023-06-26T11:32:34;2.70;;;1.67;;
12122;SDS011;6125;59.628;17.852;2023-06-26T11:35:02;3.07;;;1.70;;
12122;SDS011;6125;59.628;17.852;2023-06-26T11:37:30;4.53;;;1.67;;
12122;SDS011;6125;59.628;17.852;2023-06-26T11:39:58;3.07;;;1.60;;
12122;SDS011;6125;59.628;17.852;2023-06-26T11:42:25;4.47;;;1.73;;
12122;SDS011;6125;59.628;17.852;2023-06-26T11:44:52;1.60;;;1.50;;
12122;SDS011;6125;59.628;17.852;2023-06-26T11:47:21;6.97;;;1.40;;
12122;SDS011;6125;59.628;17.852;2023-06-26T11:49:49;2.33;;;1.70;;
12122;SDS011;6125;59.628;17.852;2023-06-26T11:52:16;2.70;;;1.70;;
12122;SDS011;6125;59.628;17.852;2023-06-26T11:54:43;1.60;;;1.50;;
12122;SDS011;6125;59.628;17.852;2023-06-26T11:57:13;2.57;;;1.60;;
12122;SDS011;6125;59.628;17.852;2023-06-26T11:59:44;1.80;;;1.20;;
12122;SDS011;6125;59.628;17.852;2023-06-26T12:02:13;1.70;;;1.50;;
12122;SDS011;6125;59.628;17.852;2023-06-26T12:04:42;2.50;;;1.60;;
12122;SDS011;6125;59.628;17.852;2023-06-26T12:07:10;1.60;;;1.47;;
12122;SDS011;6125;59.628;17.852;2023-06-26T12:09:40;2.53;;;2.10;;
12122;SDS011;6125;59.628;17.852;2023-06-26T12:12:09;3.13;;;1.70;;
12122;SDS011;6125;59.628;17.852;2023-06-26T12:14:37;2.80;;;1.30;;
12122;SDS011;6125;59.628;17.852;2023-06-26T12:17:07;2.50;;;1.27;;
12122;SDS011;6125;59.628;17.852;2023-06-26T12:19:36;5.53;;;1.83;;
12122;SDS011;6125;59.628;17.852;2023-06-26T12:22:09;1.90;;;1.47;;
12122;SDS011;6125;59.628;17.852;2023-06-26T12:24:36;2.30;;;1.30;;
12122;SDS011;6125;59.628;17.852;2023-06-26T12:27:07;2.23;;;1.37;;
12122;SDS011;6125;59.628;17.852;2023-06-26T12:29:35;1.40;;;1.30;;
12122;SDS011;6125;59.628;17.852;2023-06-26T12:32:07;1.90;;;1.50;;
12122;SDS011;6125;59.628;17.852;2023-06-26T12:34:35;2.80;;;1.60;;
12122;SDS011;6125;59.628;17.852;2023-06-26T12:37:04;2.23;;;1.60;;
12122;SDS011;6125;59.628;17.852;2023-06-26T12:39:46;1.87;;;1.37;;
12122;SDS011;6125;59.628;17.852;2023-06-26T12:42:14;3.63;;;1.67;;
12122;SDS011;6125;59.628;17.852;2023-06-26T12:44:41;2.47;;;1.10;;
12122;SDS011;6125;59.628;17.852;2023-06-26T12:47:09;1.77;;;1.30;;
12122;SDS011;6125;59.628;17.852;2023-06-26T12:49:38;1.77;;;1.40;;
12122;SDS011;6125;59.628;17.852;2023-06-26T12:52:07;1.50;;;1.40;;
12122;SDS011;6125;59.628;17.852;2023-06-26T12:54:35;1.70;;;1.50;;
12122;SDS011;6125;59.628;17.852;2023-06-26T12:57:04;2.10;;;1.50;;
12122;SDS011;6125;59.628;17.852;2023-06-26T12:59:32;3.13;;;1.57;;
12122;SDS011;6125;59.628;17.852;2023-06-26T13:02:00;5.60;;;1.93;;
12122;SDS011;6125;59.628;17.852;2023-06-26T13:04:27;3.53;;;1.40;;
12122;SDS011;6125;59.628;17.852;2023-06-26T13:06:54;1.40;;;1.30;;
12122;SDS011;6125;59.628;17.852;2023-06-26T13:09:31;2.93;;;1.40;;
12122;SDS011;6125;59.628;17.852;2023-06-26T13:12:00;3.50;;;1.77;;
12122;SDS011;6125;59.628;17.852;2023-06-26T13:14:30;2.50;;;1.67;;
12122;SDS011;6125;59.628;17.852;2023-06-26T13:16:57;1.50;;;1.40;;
12122;SDS011;6125;59.628;17.852;2023-06-26T13:19:24;1.93;;;1.43;;
12122;SDS011;6125;59.628;17.852;2023-06-26T13:21:51;1.70;;;1.47;;
12122;SDS011;6125;59.628;17.852;2023-06-26T13:24:18;2.10;;;1.70;;
12122;SDS011;6125;59.628;17.852;2023-06-26T13:26:45;2.50;;;1.40;;
12122;SDS011;6125;59.628;17.852;2023-06-26T13:29:12;1.50;;;1.33;;
12122;SDS011;6125;59.628;17.852;2023-06-26T13:31:42;2.20;;;1.50;;
12122;SDS011;6125;59.628;17.852;2023-06-26T13:34:09;4.10;;;1.53;;
12122;SDS011;6125;59.628;17.852;2023-06-26T13:36:47;2.53;;;1.60;;
12122;SDS011;6125;59.628;17.852;2023-06-26T13:39:14;1.50;;;1.33;;
12122;SDS011;6125;59.628;17.852;2023-06-26T13:41:41;2.33;;;1.63;;
12122;SDS011;6125;59.628;17.852;2023-06-26T13:44:08;1.70;;;1.60;;
12122;SDS011;6125;59.628;17.852;2023-06-26T13:46:35;3.17;;;1.43;;
12122;SDS011;6125;59.628;17.852;2023-06-26T13:49:04;2.50;;;1.40;;
12122;SDS011;6125;59.628;17.852;2023-06-26T13:51:31;2.60;;;1.60;;
12122;SDS011;6125;59.628;17.852;2023-06-26T13:53:58;1.60;;;1.50;;
12122;SDS011;6125;59.628;17.852;2023-06-26T13:56:25;1.80;;;1.40;;
12122;SDS011;6125;59.628;17.852;2023-06-26T13:58:55;2.00;;;1.60;;
12122;SDS011;6125;59.628;17.852;2023-06-26T14:01:23;1.40;;;1.30;;
12122;SDS011;6125;59.628;17.852;2023-06-26T14:03:50;5.90;;;1.80;;
12122;SDS011;6125;59.628;17.852;2023-06-26T14:06:19;1.60;;;1.50;;
12122;SDS011;6125;59.628;17.852;2023-06-26T14:08:46;2.20;;;1.70;;
12122;SDS011;6125;59.628;17.852;2023-06-26T14:11:13;3.33;;;1.80;;
12122;SDS011;6125;59.628;17.852;2023-06-26T14:13:40;1.80;;;1.70;;
12122;SDS011;6125;59.628;17.852;2023-06-26T14:16:07;1.80;;;1.70;;
12122;SDS011;6125;59.628;17.852;2023-06-26T14:18:34;2.20;;;1.57;;
12122;SDS011;6125;59.628;17.852;2023-06-26T14:21:01;2.87;;;1.50;;
12122;SDS011;6125;59.628;17.852;2023-06-26T14:23:30;2.00;;;1.53;;
12122;SDS011;6125;59.628;17.852;2023-06-26T14:25:57;2.57;;;1.70;;
12122;SDS011;6125;59.628;17.852;2023-06-26T14:28:24;1.93;;;1.70;;
12122;SDS011;6125;59.628;17.852;2023-06-26T14:30:51;3.43;;;1.80;;
12122;SDS011;6125;59.628;17.852;2023-06-26T14:33:18;1.87;;;1.60;;
12122;SDS011;6125;59.628;17.852;2023-06-26T14:35:45;2.43;;;1.70;;
12122;SDS011;6125;59.628;17.852;2023-06-26T14:38:12;1.70;;;1.53;;
12122;SDS011;6125;59.628;17.852;2023-06-26T14:40:41;1.77;;;1.60;;
12122;SDS011;6125;59.628;17.852;2023-06-26T14:43:08;2.07;;;1.60;;
12122;SDS011;6125;59.628;17.852;2023-06-26T14:45:35;2.83;;;1.90;;
12122;SDS011;6125;59.628;17.852;2023-06-26T14:48:02;3.20;;;1.47;;
12122;SDS011;6125;59.628;17.852;2023-06-26T14:50:29;1.40;;;1.30;;
12122;SDS011;6125;59.628;17.852;2023-06-26T14:52:56;2.20;;;1.70;;
12122;SDS011;6125;59.628;17.852;2023-06-26T14:55:30;2.83;;;2.13;;